Time;durP1;ratioP1;P1;durP2;ratioP2;P2;SDS_P1;SDS_P2;PMS_P1;PMS_P2;Temp;Humidity;BMP_temperature;BMP_pressure;BME280_temperature;BME280_humidity;BME280_pressure;Samples;Min_cycle;Max_cycle;Signal;HPM_P1;HPM_P2
2021/05/29 00:00:19;;;;;;;11.50;2.90;;;;;;;18.11;70.34;100701.03;5156795;27;20058;-78
2021/05/29 00:03:25;;;;;;;8.18;2.83;;;;;;;17.97;70.86;100696.28;5143734;27;20066;-79
2021/05/29 00:06:31;;;;;;;8.75;3.03;;;;;;;17.99;70.96;100693.44;5155992;27;20074;-79
2021/05/29 00:09:36;;;;;;;13.45;3.50;;;;;;;17.92;71.47;100693.28;5156518;27;20054;-79
2021/05/29 00:12:40;;;;;;;6.68;3.13;;;;;;;17.88;72.14;100691.06;5156128;27;20058;-78
2021/05/29 00:15:45;;;;;;;11.55;3.10;;;;;;;17.75;72.45;100685.34;5155733;27;20053;-79
2021/05/29 00:18:50;;;;;;;11.18;3.55;;;;;;;17.58;73.34;100683.66;5156402;27;20049;-79
2021/05/29 00:21:54;;;;;;;10.88;3.75;;;;;;;17.42;73.73;100677.22;5143353;27;20099;-79
2021/05/29 00:24:59;;;;;;;6.97;3.17;;;;;;;17.36;73.68;100675.16;5156016;27;20042;-78
2021/05/29 00:28:04;;;;;;;10.25;3.03;;;;;;;17.33;73.71;100675.50;5143339;27;20042;-78
2021/05/29 00:31:08;;;;;;;7.28;3.05;;;;;;;17.23;74.20;100676.69;5143267;27;20042;-79
2021/05/29 00:34:13;;;;;;;6.80;2.95;;;;;;;17.13;74.71;100665.16;5143343;27;20045;-78
2021/05/29 00:37:17;;;;;;;7.03;3.33;;;;;;;17.14;74.58;100673.13;5155634;27;20468;-77
2021/05/29 00:40:22;;;;;;;8.73;3.10;;;;;;;17.20;74.94;100677.03;5155875;27;20049;-79
2021/05/29 00:43:26;;;;;;;6.90;3.15;;;;;;;17.24;74.47;100668.38;5155925;27;20421;-78
2021/05/29 00:46:30;;;;;;;6.22;3.60;;;;;;;17.25;74.35;100674.66;5155818;27;20058;-77
2021/05/29 00:49:35;;;;;;;8.00;3.40;;;;;;;17.28;74.34;100666.19;5155797;27;20054;-77
2021/05/29 00:52:40;;;;;;;11.93;3.58;;;;;;;17.35;74.00;100678.06;5142909;27;20053;-77
2021/05/29 00:55:45;;;;;;;7.55;3.33;;;;;;;17.39;73.78;100672.09;5155852;27;20045;-80
2021/05/29 00:58:49;;;;;;;9.55;3.67;;;;;;;17.42;73.35;100669.06;5155043;27;20073;-77
2021/05/29 01:01:54;;;;;;;6.72;3.13;;;;;;;17.34;73.67;100669.06;5155729;27;20058;-78
2021/05/29 01:04:58;;;;;;;6.90;3.40;;;;;;;17.40;73.90;100665.69;5155976;27;20056;-78
2021/05/29 01:08:02;;;;;;;10.60;3.45;;;;;;;17.50;73.37;100670.94;5155643;27;20053;-78
2021/05/29 01:11:08;;;;;;;7.65;3.78;;;;;;;17.48;73.64;100671.06;5155619;27;20065;-78
2021/05/29 01:14:12;;;;;;;8.68;3.40;;;;;;;17.47;73.55;100663.97;5155637;27;20050;-79
2021/05/29 01:17:17;;;;;;;6.60;3.15;;;;;;;17.50;73.60;100666.31;5155550;27;20046;-79
2021/05/29 01:20:22;;;;;;;6.00;3.03;;;;;;;17.44;73.74;100664.31;5142735;27;20049;-78
2021/05/29 01:23:27;;;;;;;10.98;3.80;;;;;;;17.29;73.83;100657.00;5155502;27;20057;-78
2021/05/29 01:26:31;;;;;;;10.70;3.85;;;;;;;17.26;73.76;100660.06;5155567;27;20481;-79
2021/05/29 01:29:36;;;;;;;7.20;3.38;;;;;;;17.12;73.59;100658.03;5159335;27;20058;-78
2021/05/29 01:32:40;;;;;;;5.97;3.22;;;;;;;17.02;73.91;100654.63;5146643;27;20135;-78
2021/05/29 01:35:46;;;;;;;7.55;3.38;;;;;;;16.94;74.47;100650.06;5159113;27;20046;-78
2021/05/29 01:38:50;;;;;;;7.13;3.35;;;;;;;16.84;74.45;100646.66;5159382;27;20050;-79
2021/05/29 01:41:55;;;;;;;7.75;3.38;;;;;;;16.77;74.90;100649.19;5159351;27;20054;-78
2021/05/29 01:45:02;;;;;;;6.50;3.15;;;;;;;16.76;74.71;100654.78;5159283;27;20054;-78
2021/05/29 01:48:08;;;;;;;6.63;3.28;;;;;;;16.80;74.64;100661.56;5159460;27;20062;-77
2021/05/29 01:51:14;;;;;;;7.25;3.20;;;;;;;16.85;74.68;100653.78;5159385;27;20481;-78
2021/05/29 01:54:07;;;;;;;6.43;3.03;;;;;;;16.94;74.64;100650.06;5165633;27;20389;-78
2021/05/29 01:57:28;;;;;;;8.57;2.97;;;;;;;17.03;73.87;100654.50;5158465;27;20374;-79
2021/05/29 02:00:15;;;;;;;5.93;3.10;;;;;;;17.01;74.07;100647.53;5165661;27;20050;-78
2021/05/29 02:03:20;;;;;;;6.95;3.05;;;;;;;16.93;73.71;100651.09;5159162;27;20373;-77
2021/05/29 02:06:05;;;;;;;6.25;3.22;;;;;;;16.98;73.78;100650.56;5165890;27;20432;-81
2021/05/29 02:08:51;;;;;;;7.40;2.85;;;;;;;16.95;73.82;100649.06;5165853;27;20037;-80
2021/05/29 02:11:36;;;;;;;6.57;3.10;;;;;;;16.98;73.87;100648.72;5165708;27;20045;-77
2021/05/29 02:14:42;;;;;;;5.22;2.75;;;;;;;17.02;73.79;100646.50;5158830;27;20050;-77
2021/05/29 02:17:27;;;;;;;7.03;3.17;;;;;;;17.02;73.81;100644.66;5165602;27;20046;-78
2021/05/29 02:20:48;;;;;;;7.60;3.58;;;;;;;17.00;73.83;100635.84;5158948;27;20488;-77
2021/05/29 02:23:53;;;;;;;6.35;2.92;;;;;;;17.02;73.78;100633.78;5158600;27;20068;-79
2021/05/29 02:26:57;;;;;;;7.97;2.90;;;;;;;17.05;73.41;100632.59;5158422;27;20042;-79
2021/05/29 02:29:42;;;;;;;7.68;3.40;;;;;;;16.98;73.55;100632.44;5165360;27;20500;-79
2021/05/29 02:32:28;;;;;;;7.35;3.53;;;;;;;16.85;73.83;100629.38;5165281;27;20046;-79
2021/05/29 02:35:13;;;;;;;15.20;4.38;;;;;;;16.73;73.25;100636.16;5165231;27;20042;-77
2021/05/29 02:38:19;;;;;;;6.28;3.38;;;;;;;16.69;73.07;100638.31;5158093;27;20381;-79
2021/05/29 02:41:07;;;;;;;10.77;4.22;;;;;;;16.71;73.27;100641.72;5165038;27;20469;-77
2021/05/29 02:43:53;;;;;;;7.55;3.53;;;;;;;16.52;73.46;100633.03;5165015;27;20046;-79
2021/05/29 02:46:38;;;;;;;13.52;3.70;;;;;;;16.43;74.28;100642.13;5165043;27;20061;-78
2021/05/29 02:49:24;;;;;;;7.10;4.13;;;;;;;16.38;74.55;100644.50;5164944;27;20042;-79
2021/05/29 02:52:09;;;;;;;7.70;4.15;;;;;;;16.32;74.37;100631.63;5164938;27;20069;-78
2021/05/29 02:54:55;;;;;;;6.50;4.13;;;;;;;16.09;75.14;100631.38;5158174;27;20057;-79
2021/05/29 02:57:41;;;;;;;12.70;4.38;;;;;;;16.10;75.12;100641.16;5164138;27;20054;-79
2021/05/29 03:00:29;;;;;;;7.28;4.00;;;;;;;16.02;75.42;100644.69;5165389;27;20053;-81
2021/05/29 03:03:15;;;;;;;7.68;4.22;;;;;;;16.07;75.81;100639.63;5143769;27;20500;-79
2021/05/29 03:06:00;;;;;;;8.48;4.60;;;;;;;16.03;75.47;100640.13;5165484;27;20480;-78
2021/05/29 03:09:05;;;;;;;7.28;4.32;;;;;;;15.95;75.60;100643.66;5157919;27;20500;-79
2021/05/29 03:12:09;;;;;;;8.80;4.80;;;;;;;15.89;75.80;100636.19;5157493;27;20389;-79
2021/05/29 03:15:17;;;;;;;8.13;4.55;;;;;;;15.82;76.48;100632.44;5157535;27;20042;-78
2021/05/29 03:18:22;;;;;;;12.88;5.07;;;;;;;15.82;76.76;100634.28;5157474;27;20054;-79
2021/05/29 03:21:26;;;;;;;6.85;4.43;;;;;;;15.80;76.59;100641.72;5157315;27;20057;-80
2021/05/29 03:24:31;;;;;;;11.07;4.80;;;;;;;15.85;75.45;100634.78;5157565;27;20054;-79
2021/05/29 03:27:36;;;;;;;9.00;4.95;;;;;;;15.84;75.45;100643.94;5157246;27;20481;-79
2021/05/29 03:30:41;;;;;;;9.23;4.72;;;;;;;15.84;75.13;100646.66;5157432;27;20385;-78
2021/05/29 03:33:45;;;;;;;7.32;4.82;;;;;;;15.94;74.77;100644.69;5157040;27;20053;-77
2021/05/29 03:36:50;;;;;;;7.35;5.45;;;;;;;15.98;74.58;100640.63;5157136;27;20066;-80
2021/05/29 03:39:56;;;;;;;10.68;5.22;;;;;;;16.05;74.90;100648.94;5156787;27;20413;-79
2021/05/29 03:43:00;;;;;;;11.23;5.20;;;;;;;16.13;74.74;100635.44;5156962;27;20500;-79
2021/05/29 03:46:04;;;;;;;6.82;5.07;;;;;;;16.17;74.63;100642.25;5144177;27;20050;-79
2021/05/29 03:49:09;;;;;;;9.68;4.68;;;;;;;16.20;74.16;100640.03;5157140;27;20066;-77
2021/05/29 03:52:13;;;;;;;7.65;4.85;;;;;;;16.25;73.93;100644.97;5156144;27;20058;-77
2021/05/29 03:55:20;;;;;;;9.93;5.03;;;;;;;16.31;73.37;100636.19;5143898;27;20046;-78
2021/05/29 03:58:24;;;;;;;9.73;4.97;;;;;;;16.24;73.82;100641.41;5156483;27;20393;-78
2021/05/29 04:01:29;;;;;;;9.02;4.78;;;;;;;16.18;73.88;100642.06;5156753;27;20069;-78
2021/05/29 04:04:33;;;;;;;8.02;4.45;;;;;;;16.26;73.57;100650.22;5156530;27;20045;-78
2021/05/29 04:07:39;;;;;;;11.27;5.95;;;;;;;16.35;74.16;100645.66;5156481;27;20042;-78
2021/05/29 04:10:43;;;;;;;6.78;4.68;;;;;;;16.55;73.46;100655.25;5156719;27;20046;-79
2021/05/29 04:13:48;;;;;;;8.30;4.88;;;;;;;16.66;72.91;100651.38;5156391;27;20057;-78
2021/05/29 04:16:52;;;;;;;7.10;4.22;;;;;;;16.77;72.90;100645.63;5143520;27;20042;-79
2021/05/29 04:19:57;;;;;;;13.77;4.85;;;;;;;16.91;72.16;100639.56;5156424;27;20057;-79
2021/05/29 04:23:01;;;;;;;9.43;4.05;;;;;;;17.03;71.12;100634.66;5156141;27;20503;-79
2021/05/29 04:26:07;;;;;;;11.73;4.40;;;;;;;17.16;70.11;100630.41;5156127;27;20046;-79
2021/05/29 04:29:11;;;;;;;8.40;3.92;;;;;;;17.28;69.95;100639.88;5156425;27;20373;-79
2021/05/29 04:32:17;;;;;;;9.07;4.35;;;;;;;17.67;69.03;100639.19;5156130;27;20053;-79
2021/05/29 04:35:22;;;;;;;10.40;4.40;;;;;;;18.21;67.36;100635.59;5143627;27;20049;-79
2021/05/29 04:38:27;;;;;;;9.45;4.03;;;;;;;18.48;65.94;100637.88;5131513;27;20381;-80
2021/05/29 04:41:32;;;;;;;9.75;3.78;;;;;;;18.96;64.45;100633.16;5156104;27;20084;-79
2021/05/29 04:44:36;;;;;;;6.28;3.80;;;;;;;19.16;63.18;100634.34;5155953;27;20513;-78
2021/05/29 04:47:41;;;;;;;6.80;3.95;;;;;;;19.33;63.11;100638.63;5156169;27;20053;-77
2021/05/29 04:54:09;;;;;;;22.40;16.25;;;;;;;19.60;61.45;100639.91;5155977;27;20057;-79
2021/05/29 04:57:14;;;;;;;21.65;14.23;;;;;;;20.05;61.06;100646.03;5143046;27;20043;-78
2021/05/29 05:00:18;;;;;;;7.82;3.80;;;;;;;20.35;60.08;100635.13;5155722;27;20043;-79
2021/05/29 05:03:23;;;;;;;8.32;3.92;;;;;;;20.39;60.57;100639.19;5161882;27;20397;-79
2021/05/29 05:06:28;;;;;;;9.50;3.80;;;;;;;20.62;59.72;100631.66;5149424;27;20049;-81
2021/05/29 05:09:32;;;;;;;7.88;3.13;;;;;;;20.60;59.56;100628.31;5162553;27;20377;-79
2021/05/29 05:12:36;;;;;;;6.63;3.08;;;;;;;21.35;57.86;100626.78;5149762;27;20053;-79
2021/05/29 05:15:40;;;;;;;10.80;3.25;;;;;;;22.29;54.19;100619.84;5162163;27;20050;-78
2021/05/29 05:18:45;;;;;;;7.30;3.20;;;;;;;23.28;51.32;100629.97;5162466;27;20046;-79
2021/05/29 05:21:50;;;;;;;6.65;2.90;;;;;;;24.27;48.49;100622.47;5162701;27;20374;-80
2021/05/29 05:24:54;;;;;;;9.90;3.20;;;;;;;24.84;47.46;100623.47;5162435;27;20370;-80
2021/05/29 05:27:59;;;;;;;7.47;2.95;;;;;;;24.95;47.00;100620.91;5149957;27;20058;-80
2021/05/29 05:31:05;;;;;;;7.78;3.13;;;;;;;24.68;48.41;100623.97;5162570;27;20066;-79
2021/05/29 05:34:11;;;;;;;6.60;2.90;;;;;;;25.04;47.92;100625.06;5149422;27;20045;-80
2021/05/29 05:37:15;;;;;;;5.18;2.78;;;;;;;25.80;45.43;100625.69;5162346;27;20046;-79
2021/05/29 05:40:20;;;;;;;7.57;2.78;;;;;;;27.18;42.71;100615.69;5149461;27;20386;-80
2021/05/29 05:43:24;;;;;;;8.10;2.78;;;;;;;28.26;39.92;100628.00;5162303;27;20377;-79
2021/05/29 05:46:29;;;;;;;4.85;2.85;;;;;;;29.18;37.97;100628.72;5162467;27;20050;-79
2021/05/29 05:49:35;;;;;;;7.95;2.90;;;;;;;30.10;36.60;100624.44;5162257;27;20489;-79
2021/05/29 05:52:40;;;;;;;10.15;2.83;;;;;;;30.89;35.07;100616.53;5162188;27;20070;-81
2021/05/29 05:55:45;;;;;;;7.72;3.03;;;;;;;30.98;34.90;100623.34;5162138;27;20050;-79
2021/05/29 05:58:49;;;;;;;6.57;2.50;;;;;;;31.26;33.45;100620.28;5161794;27;20050;-81
2021/05/29 06:01:54;;;;;;;8.48;2.80;;;;;;;32.06;31.98;100625.66;5162179;27;20049;-78
2021/05/29 06:04:59;;;;;;;7.65;2.50;;;;;;;32.18;32.50;100625.44;5149299;27;20069;-80
2021/05/29 06:08:04;;;;;;;6.03;2.50;;;;;;;32.30;31.57;100627.97;5162062;27;20042;-80
2021/05/29 06:11:08;;;;;;;7.50;2.65;;;;;;;31.70;33.09;100628.44;5162128;27;20508;-80
2021/05/29 06:20:45;;;;;;;6.65;2.40;;;;;;;34.23;30.41;100627.97;5159012;27;20138;-80
2021/05/29 06:23:50;;;;;;;6.97;2.25;;;;;;;36.14;27.52;100634.25;5158749;27;20053;-79
2021/05/29 06:26:56;;;;;;;9.25;2.30;;;;;;;36.33;27.32;100624.78;5158114;27;20045;-81
2021/05/29 06:30:00;;;;;;;5.47;2.75;;;;;;;35.92;27.65;100637.53;5158362;27;20103;-79
2021/05/29 06:33:05;;;;;;;8.10;2.40;;;;;;;36.35;27.72;100630.06;5158340;27;20042;-79
2021/05/29 06:36:10;;;;;;;6.57;2.22;;;;;;;36.32;26.95;100639.09;5158293;27;20069;-79
2021/05/29 06:39:14;;;;;;;13.15;2.60;;;;;;;36.50;27.22;100638.31;5158224;27;20046;-79
2021/05/29 06:42:19;;;;;;;8.18;2.58;;;;;;;37.65;26.34;100638.56;5133907;27;20369;-80
2021/05/29 06:45:24;;;;;;;5.68;2.60;;;;;;;38.67;25.49;100646.69;5158093;27;20049;-79
2021/05/29 06:48:28;;;;;;;6.53;2.83;;;;;;;37.44;26.67;100654.06;5158046;27;20050;-80
2021/05/29 07:01:40;;;;;;;6.40;2.67;;;;;;;37.15;26.52;100651.44;5157785;27;20054;-79
2021/05/29 07:04:45;;;;;;;6.13;2.55;;;;;;;37.74;25.68;100653.56;5157759;27;20045;-79
2021/05/29 07:07:49;;;;;;;6.35;2.20;;;;;;;38.79;25.18;100663.88;5157704;27;20050;-79
2021/05/29 07:10:54;;;;;;;5.85;2.70;;;;;;;38.89;24.95;100657.19;5144991;27;20112;-79
2021/05/29 07:13:59;;;;;;;7.00;2.90;;;;;;;39.45;23.37;100651.97;5144761;27;20484;-79
2021/05/29 07:17:06;;;;;;;4.82;2.50;;;;;;;40.59;23.06;100655.94;5157757;27;20101;-79
2021/05/29 07:20:11;;;;;;;7.10;3.15;;;;;;;39.73;23.04;100655.47;5157362;27;20069;-79
2021/05/29 07:23:16;;;;;;;7.68;3.13;;;;;;;38.79;24.83;100647.03;5157386;27;20472;-79
2021/05/29 07:26:20;;;;;;;7.15;3.35;;;;;;;39.27;23.80;100655.78;5143451;27;20090;-79
2021/05/29 07:29:26;;;;;;;5.18;3.00;;;;;;;39.34;24.00;100641.28;5157259;27;20476;-79
2021/05/29 07:32:31;;;;;;;10.10;2.97;;;;;;;39.05;24.37;100636.06;5157144;27;20420;-80
2021/05/29 07:35:35;;;;;;;5.00;3.30;;;;;;;38.85;24.55;100642.97;5156754;27;20401;-79
2021/05/29 07:38:39;;;;;;;6.97;3.15;;;;;;;37.45;25.27;100643.69;5156975;27;20057;-79
2021/05/29 07:41:43;;;;;;;5.55;3.10;;;;;;;38.34;24.25;100645.19;5157309;27;20045;-79
2021/05/29 07:44:48;;;;;;;6.35;3.40;;;;;;;38.17;25.26;100644.94;5156914;27;20049;-79
2021/05/29 07:47:53;;;;;;;6.47;3.30;;;;;;;40.29;23.00;100646.38;5144001;27;20496;-79
2021/05/29 07:50:58;;;;;;;5.53;2.95;;;;;;;39.81;22.91;100646.28;5156789;27;20058;-79
2021/05/29 07:54:06;;;;;;;4.28;2.95;;;;;;;39.09;23.83;100647.47;5144035;27;20112;-79
2021/05/29 07:57:10;;;;;;;5.60;3.28;;;;;;;39.16;24.40;100645.88;5156629;27;20045;-79
2021/05/29 08:00:22;;;;;;;7.55;3.05;;;;;;;38.50;24.00;100649.31;5156667;27;20042;-79
2021/05/29 08:03:29;;;;;;;9.00;3.20;;;;;;;38.19;25.33;100643.50;5156588;27;20038;-79
2021/05/29 08:06:38;;;;;;;8.52;3.47;;;;;;;37.87;25.55;100645.50;5156352;27;20041;-79
2021/05/29 08:09:43;;;;;;;6.78;3.58;;;;;;;37.09;25.65;100644.22;5156461;27;20049;-79
2021/05/29 08:12:47;;;;;;;7.93;3.28;;;;;;;36.64;26.55;100644.03;5156468;27;20487;-79
2021/05/29 08:15:52;;;;;;;5.55;3.75;;;;;;;34.77;27.96;100640.03;5156334;27;20053;-78
2021/05/29 08:18:57;;;;;;;7.88;3.90;;;;;;;32.29;32.20;100643.84;5156263;27;20053;-78
2021/05/29 08:22:01;;;;;;;8.63;3.63;;;;;;;31.83;33.24;100645.47;5143517;27;20478;-79
2021/05/29 08:25:07;;;;;;;5.75;3.90;;;;;;;30.95;35.06;100647.97;5156197;27;20054;-78
2021/05/29 08:28:11;;;;;;;5.05;3.50;;;;;;;29.20;37.67;100645.09;5156176;27;20050;-81
2021/05/29 08:31:15;;;;;;;7.10;4.03;;;;;;;28.90;39.05;100651.72;5156386;27;20050;-80
2021/05/29 08:34:20;;;;;;;6.45;4.80;;;;;;;27.84;41.17;100651.28;5155969;27;20057;-78
2021/05/29 08:37:24;;;;;;;8.93;4.53;;;;;;;27.58;42.67;100654.50;5155844;27;20054;-78
2021/05/29 08:40:29;;;;;;;9.85;4.88;;;;;;;27.66;42.13;100654.16;5156005;27;20046;-81
2021/05/29 08:43:34;;;;;;;8.48;5.05;;;;;;;26.79;43.02;100665.84;5155919;27;20049;-78
2021/05/29 08:46:39;;;;;;;10.38;4.88;;;;;;;26.19;44.47;100662.16;5155964;27;20393;-78
2021/05/29 08:49:44;;;;;;;9.43;4.82;;;;;;;26.08;45.31;100655.44;5155853;27;20069;-81
2021/05/29 08:52:49;;;;;;;14.80;5.32;;;;;;;26.20;45.57;100650.91;5155815;27;20393;-78
2021/05/29 08:55:53;;;;;;;6.35;4.78;;;;;;;26.87;44.15;100655.38;5143105;27;20053;-78
2021/05/29 08:58:59;;;;;;;9.45;5.53;;;;;;;26.54;44.37;100662.38;5155206;27;20058;-78
2021/05/29 09:02:05;;;;;;;6.88;5.35;;;;;;;26.22;44.83;100658.94;5155719;27;20054;-81
2021/05/29 09:05:11;;;;;;;11.50;5.63;;;;;;;25.94;44.66;100653.06;5142423;27;20041;-78
2021/05/29 09:08:18;;;;;;;7.88;4.70;;;;;;;26.37;43.39;100651.97;5142941;27;20069;-78
2021/05/29 09:11:38;;;;;;;10.23;5.72;;;;;;;26.25;44.80;100656.56;5155655;27;20046;-79
2021/05/29 09:14:42;;;;;;;8.57;4.85;;;;;;;27.08;44.63;100640.25;5155497;27;20042;-78
2021/05/29 09:17:48;;;;;;;9.63;5.40;;;;;;;27.04;44.31;100639.00;5142821;27;20043;-78
2021/05/29 09:20:52;;;;;;;8.10;5.80;;;;;;;26.69;44.01;100640.78;5155518;27;20042;-80
2021/05/29 09:24:15;;;;;;;7.70;5.15;;;;;;;27.08;44.08;100645.75;5155571;27;20050;-80
2021/05/29 09:27:20;;;;;;;10.38;5.95;;;;;;;27.04;44.03;100639.00;5155418;27;20500;-78
2021/05/29 09:30:53;;;;;;;12.10;6.25;;;;;;;27.06;44.26;100648.72;5155524;27;20049;-80
2021/05/29 09:33:57;;;;;;;;;;;;;;;27.35;43.69;100644.25;5051831;28;20048;-80
2021/05/29 09:37:07;;;;;;;9.93;6.03;;;;;;;26.93;44.02;100639.81;5051617;28;19916;-78
2021/05/29 09:40:11;;;;;;;8.18;6.03;;;;;;;26.75;44.49;100637.91;5051434;28;20492;-80
2021/05/29 09:43:16;;;;;;;10.25;5.97;;;;;;;26.82;44.95;100641.44;5052353;28;20048;-78
2021/05/29 09:46:21;;;;;;;10.45;5.97;;;;;;;27.11;43.20;100629.56;5051333;28;20451;-79
2021/05/29 09:49:41;;;;;;;7.38;5.38;;;;;;;27.73;42.21;100630.88;5053006;28;20048;-79
2021/05/29 09:52:47;;;;;;;14.27;6.55;;;;;;;27.52;42.32;100644.44;5055093;28;20487;-78
2021/05/29 09:55:51;;;;;;;10.73;5.70;;;;;;;27.61;42.82;100627.28;5043402;28;20554;-81
2021/05/29 09:59:06;;;;;;;8.95;6.18;;;;;;;27.56;42.89;100638.19;5054866;28;20172;-80
2021/05/29 10:02:10;;;;;;;10.35;6.40;;;;;;;27.77;41.90;100638.69;5054586;28;20164;-80
2021/05/29 10:05:36;;;;;;;7.70;5.80;;;;;;;27.66;42.00;100635.69;5032382;28;20144;-79
2021/05/29 10:08:41;;;;;;;9.25;6.35;;;;;;;27.14;42.95;100631.00;5056031;28;20063;-81
2021/05/29 10:11:45;;;;;;;13.63;6.15;;;;;;;27.67;42.52;100633.78;5117540;28;20425;-80
2021/05/29 10:14:50;;;;;;;10.43;6.85;;;;;;;27.43;42.22;100623.81;5117148;28;20050;-80
2021/05/29 10:17:57;;;;;;;7.68;5.30;;;;;;;27.64;42.62;100617.69;5117409;28;20051;-79
2021/05/29 10:21:01;;;;;;;13.00;6.28;;;;;;;27.37;43.47;100617.28;5117538;28;20050;-79
2021/05/29 10:24:07;;;;;;;9.15;6.57;;;;;;;27.43;43.69;100623.81;5117293;28;20066;-78
2021/05/29 10:27:24;;;;;;;10.32;6.55;;;;;;;26.49;42.81;100625.34;5117415;28;20050;-80
2021/05/29 10:30:30;;;;;;;9.68;6.10;;;;;;;26.40;43.72;100612.97;5116347;28;20047;-79
2021/05/29 10:33:43;;;;;;;12.00;6.32;;;;;;;25.97;45.08;100614.94;5117396;28;20074;-78
2021/05/29 10:36:58;;;;;;;;;;;;;;;26.47;44.64;100613.72;5117460;28;20051;-78
2021/05/29 10:40:24;;;;;;;12.07;6.78;;;;;;;26.51;45.18;100611.34;5116843;28;19916;-78
2021/05/29 10:43:33;;;;;;;10.02;5.90;;;;;;;26.04;46.00;100612.97;5116933;28;20062;-78
2021/05/29 10:46:37;;;;;;;9.48;6.05;;;;;;;26.42;45.22;100613.56;5116869;28;20620;-78
2021/05/29 10:49:50;;;;;;;10.70;5.15;;;;;;;26.71;45.54;100606.41;5116798;28;20405;-80
2021/05/29 10:52:55;;;;;;;9.10;5.90;;;;;;;26.52;45.13;100606.69;5116791;28;20046;-80
2021/05/29 10:56:21;;;;;;;10.52;6.10;;;;;;;26.20;45.11;100598.59;5116672;28;20402;-77
2021/05/29 10:59:36;;;;;;;18.08;15.52;;;;;;;25.92;44.93;100601.03;5146233;27;20096;-78
2021/05/29 11:02:41;;;;;;;11.95;7.05;;;;;;;26.03;45.40;100603.00;5157813;27;20050;-79
2021/05/29 11:05:50;;;;;;;10.43;5.95;;;;;;;25.64;43.88;100606.19;5157820;27;20378;-79
2021/05/29 11:08:55;;;;;;;8.45;5.32;;;;;;;26.22;43.64;100601.16;5132806;27;20054;-78
2021/05/29 11:12:01;;;;;;;6.45;4.95;;;;;;;26.46;43.29;100595.53;5157632;27;20046;-79
2021/05/29 11:15:06;;;;;;;7.95;4.38;;;;;;;26.82;44.10;100593.78;5157543;27;20057;-79
2021/05/29 11:18:10;;;;;;;9.32;5.57;;;;;;;26.60;43.40;100592.56;5157473;27;20054;-79
2021/05/29 11:21:15;;;;;;;8.43;5.80;;;;;;;26.28;44.16;100591.94;5157755;27;20500;-79
2021/05/29 11:24:20;;;;;;;9.82;4.13;;;;;;;26.66;42.66;100581.50;5157634;27;20050;-78
2021/05/29 11:27:26;;;;;;;8.32;4.70;;;;;;;27.11;43.08;100585.47;5157464;27;20054;-79
2021/05/29 11:30:33;;;;;;;8.38;5.13;;;;;;;26.98;42.17;100582.94;5144492;27;20389;-79
2021/05/29 11:33:52;;;;;;;13.55;6.15;;;;;;;26.73;42.53;100571.22;5157300;27;20054;-79
2021/05/29 11:37:00;;;;;;;13.48;5.40;;;;;;;26.96;43.60;100578.75;5157177;27;20065;-80
2021/05/29 11:40:05;;;;;;;9.52;4.38;;;;;;;26.74;42.69;100566.56;5144295;27;20042;-79
2021/05/29 11:43:10;;;;;;;7.20;3.95;;;;;;;26.68;41.49;100567.47;5157062;27;20492;-80
2021/05/29 11:46:16;;;;;;;13.65;10.93;;;;;;;26.38;41.80;100562.81;5156987;27;20061;-79
2021/05/29 11:49:20;;;;;;;11.77;5.57;;;;;;;26.48;41.26;100556.75;5144125;27;20397;-79
2021/05/29 11:52:25;;;;;;;15.63;12.48;;;;;;;26.35;41.48;100562.44;5156882;27;20066;-79
2021/05/29 11:55:48;;;;;;;9.98;4.53;;;;;;;26.55;41.06;100564.91;5156087;27;20397;-80
2021/05/29 11:58:54;;;;;;;;;;;;;;;26.20;41.84;100562.84;5156681;27;20058;-79
2021/05/29 12:01:59;;;;;;;11.85;3.45;;;;;;;26.49;41.55;100552.94;5156418;27;19915;-79
2021/05/29 12:05:03;;;;;;;6.38;2.95;;;;;;;26.43;41.51;100549.19;5156308;27;20046;-80
2021/05/29 12:08:07;;;;;;;7.20;2.60;;;;;;;26.45;40.96;100548.94;5156314;27;20053;-80
2021/05/29 12:11:12;;;;;;;5.15;2.10;;;;;;;26.59;40.40;100544.09;5155964;27;20049;-81
2021/05/29 12:14:25;;;;;;;4.18;2.13;;;;;;;26.67;40.02;100536.34;5156529;27;20385;-80
2021/05/29 12:17:34;;;;;;;9.73;2.63;;;;;;;26.85;39.60;100538.22;5156406;27;20477;-77
2021/05/29 12:20:53;;;;;;;4.95;2.85;;;;;;;26.65;39.70;100538.47;5156285;27;20041;-79
2021/05/29 12:24:02;;;;;;;10.10;2.78;;;;;;;26.71;39.12;100544.97;5156038;27;20046;-79
2021/05/29 12:27:16;;;;;;;8.35;2.90;;;;;;;26.28;38.93;100524.00;5156121;27;20057;-79
2021/05/29 12:30:24;;;;;;;;;;;;;;;26.17;40.00;100533.00;5156636;27;20381;-79
2021/05/29 12:33:28;;;;;;;8.82;2.63;;;;;;;26.51;40.29;100526.00;5156260;27;19919;-79
2021/05/29 12:36:33;;;;;;;4.35;2.50;;;;;;;26.45;40.89;100521.41;5143368;27;20053;-78
2021/05/29 12:39:51;;;;;;;8.75;2.78;;;;;;;26.18;40.55;100528.34;5156171;27;20477;-80
2021/05/29 12:42:56;;;;;;;4.35;2.05;;;;;;;26.56;40.47;100520.63;5155938;27;20069;-78
2021/05/29 12:46:00;;;;;;;6.45;2.80;;;;;;;26.05;40.64;100512.81;5155900;27;20038;-79
2021/05/29 12:49:06;;;;;;;4.15;2.58;;;;;;;26.30;40.11;100510.81;5155874;27;20045;-78
2021/05/29 12:52:41;;;;;;;5.78;2.05;;;;;;;26.23;41.24;100512.84;5155742;27;20046;-78
2021/05/29 12:55:47;;;;;;;8.23;2.40;;;;;;;26.28;40.20;100499.22;5051880;28;20070;-78
2021/05/29 12:58:58;;;;;;;8.00;2.40;;;;;;;26.26;40.30;100512.38;5051746;28;20048;-79
2021/05/29 13:02:19;;;;;;;4.55;1.75;;;;;;;26.12;42.44;100510.03;5052078;28;20048;-80
2021/05/29 13:09:02;;;;;;;9.13;3.42;;;;;;;26.01;41.72;100499.75;5040259;28;20041;-78
2021/05/29 13:12:12;;;;;;;7.68;2.80;;;;;;;26.03;41.37;100492.13;5040243;28;20060;-81
2021/05/29 13:15:18;;;;;;;5.57;2.78;;;;;;;26.28;41.53;100496.47;5051316;28;20171;-80
2021/05/29 13:18:22;;;;;;;6.00;2.42;;;;;;;26.09;42.59;100492.03;5051691;28;20048;-79
2021/05/29 13:21:27;;;;;;;8.95;2.72;;;;;;;25.97;42.27;100493.91;5051668;28;20068;-79
2021/05/29 13:24:51;;;;;;;6.47;3.97;;;;;;;25.82;41.68;100501.72;5055201;28;20419;-80
2021/05/29 13:27:56;;;;;;;7.90;3.30;;;;;;;25.72;42.29;100487.66;5055497;28;20048;-79
2021/05/29 13:31:01;;;;;;;6.07;3.50;;;;;;;25.89;41.29;100480.47;5071146;28;20050;-79
2021/05/29 13:34:05;;;;;;;8.52;3.40;;;;;;;25.95;42.86;100490.53;5118243;28;20373;-78
2021/05/29 13:37:09;;;;;;;12.82;3.58;;;;;;;25.96;43.18;100486.72;5117342;28;20042;-78
2021/05/29 13:40:14;;;;;;;8.40;3.80;;;;;;;25.95;42.17;100479.50;5118404;28;20051;-78
2021/05/29 13:43:19;;;;;;;7.65;3.58;;;;;;;26.07;42.47;100468.59;5117815;28;20066;-80
2021/05/29 13:46:23;;;;;;;10.27;4.07;;;;;;;25.69;41.72;100477.94;5118280;28;20056;-78
2021/05/29 13:49:28;;;;;;;5.05;3.58;;;;;;;25.61;43.08;100471.91;5117428;28;20058;-80
2021/05/29 13:52:32;;;;;;;12.32;3.80;;;;;;;25.67;43.00;100471.00;5117825;28;20051;-80
2021/05/29 13:55:36;;;;;;;12.27;3.22;;;;;;;25.77;42.99;100472.16;5117808;28;20059;-80
2021/05/29 13:58:41;;;;;;;7.32;3.38;;;;;;;25.91;42.03;100463.72;5134237;27;20508;-78
2021/05/29 14:01:45;;;;;;;6.70;2.72;;;;;;;26.02;41.95;100458.28;5145937;27;20050;-78
2021/05/29 14:04:49;;;;;;;7.72;3.42;;;;;;;26.11;41.96;100456.91;5146180;27;20046;-78
2021/05/29 14:07:54;;;;;;;12.88;3.33;;;;;;;26.06;41.80;100453.97;5159092;27;20070;-80
2021/05/29 14:11:00;;;;;;;9.38;3.83;;;;;;;25.94;40.95;100453.09;5158759;27;20420;-79
2021/05/29 14:14:05;;;;;;;5.18;2.85;;;;;;;26.05;41.33;100452.28;5158738;27;20065;-79
2021/05/29 14:17:09;;;;;;;9.55;3.50;;;;;;;26.02;41.23;100452.78;5158690;27;20049;-80
2021/05/29 14:20:14;;;;;;;5.00;3.53;;;;;;;26.00;40.63;100460.41;5146031;27;20116;-79
2021/05/29 14:23:18;;;;;;;8.35;3.80;;;;;;;25.84;40.25;100450.06;5158630;27;20054;-79
2021/05/29 14:26:24;;;;;;;7.88;3.25;;;;;;;25.75;42.52;100457.75;5158571;27;20073;-79
2021/05/29 14:29:29;;;;;;;8.82;3.58;;;;;;;25.66;42.43;100461.91;5158503;27;20473;-80
2021/05/29 14:32:33;;;;;;;11.55;4.32;;;;;;;25.68;41.33;100459.75;5145709;27;20057;-80
2021/05/29 14:35:37;;;;;;;9.93;3.47;;;;;;;25.88;41.73;100462.25;5157642;27;20050;-79
2021/05/29 14:38:43;;;;;;;8.63;3.90;;;;;;;25.92;41.04;100448.91;5158300;27;20390;-79
2021/05/29 14:41:48;;;;;;;7.72;4.50;;;;;;;25.76;40.83;100447.59;5158253;27;20046;-79